createdAt,value
2022-12-31T00:01:18.349Z,98576.36
2022-12-31T00:03:46.901Z,98582.17
2022-12-31T00:06:14.909Z,98585.66
2022-12-31T00:08:43.864Z,98580.08
2022-12-31T00:11:12.669Z,98582.50
2022-12-31T00:13:41.343Z,98585.77
2022-12-31T00:16:14.831Z,98591.34
2022-12-31T00:18:48.513Z,98600.16
2022-12-31T00:21:17.518Z,98597.38
2022-12-31T00:23:45.836Z,98602.53
2022-12-31T00:26:16.428Z,98604.83
2022-12-31T00:28:44.980Z,98613.78
2022-12-31T00:31:13.146Z,98613.16
2022-12-31T00:33:41.652Z,98617.47
2022-12-31T00:36:11.670Z,98618.58
2022-12-31T00:38:40.753Z,98614.48
2022-12-31T00:41:09.186Z,98617.23
2022-12-31T00:43:37.430Z,98612.70
2022-12-31T00:46:06.882Z,98617.20
2022-12-31T00:48:35.997Z,98618.48
2022-12-31T00:51:12.490Z,98623.86
2022-12-31T00:53:40.924Z,98624.42
2022-12-31T00:56:12.449Z,98619.52
2022-12-31T00:58:41.139Z,98617.45
2022-12-31T01:01:21.135Z,98619.89
2022-12-31T01:03:51.165Z,98617.66
2022-12-31T01:06:20.000Z,98621.08
2022-12-31T01:08:49.059Z,98615.40
2022-12-31T01:11:22.863Z,98615.70
2022-12-31T01:14:14.448Z,98617.63
2022-12-31T01:16:45.662Z,98619.13
2022-12-31T01:19:36.379Z,98617.33
2022-12-31T01:22:04.377Z,98616.93
2022-12-31T01:24:32.563Z,98620.12
2022-12-31T01:27:00.648Z,98615.38
2022-12-31T01:29:29.809Z,98621.30
2022-12-31T01:31:57.920Z,98624.04
2022-12-31T01:34:26.055Z,98628.20
2022-12-31T01:36:54.128Z,98627.09
2022-12-31T01:39:22.226Z,98622.79
2022-12-31T01:41:50.286Z,98622.23
2022-12-31T01:44:27.414Z,98617.70
2022-12-31T01:46:58.527Z,98616.06
2022-12-31T01:49:32.491Z,98619.58
2022-12-31T01:52:12.817Z,98622.39
2022-12-31T01:54:48.026Z,98627.58
2022-12-31T01:57:17.153Z,98626.98
2022-12-31T01:59:45.553Z,98627.66
2022-12-31T02:02:14.661Z,98629.42
2022-12-31T02:04:42.930Z,98628.23
2022-12-31T02:07:12.527Z,98627.77
2022-12-31T02:09:42.098Z,98631.15
2022-12-31T02:12:10.720Z,98633.52
2022-12-31T02:14:44.294Z,98640.25
2022-12-31T02:17:15.267Z,98643.36
2022-12-31T02:20:14.320Z,98641.61
2022-12-31T02:23:10.745Z,98637.13
2022-12-31T02:26:07.125Z,98636.44
2022-12-31T02:29:19.849Z,98644.40
2022-12-31T02:31:55.276Z,98644.83
2022-12-31T02:34:37.714Z,98641.88
2022-12-31T02:37:10.497Z,98641.83
2022-12-31T02:39:39.994Z,98639.58
2022-12-31T02:42:10.465Z,98636.64
2022-12-31T02:44:40.601Z,98641.95
2022-12-31T02:47:08.582Z,98641.48
2022-12-31T02:49:58.745Z,98642.90
2022-12-31T02:52:33.029Z,98643.23
2022-12-31T02:55:31.975Z,98639.52
2022-12-31T02:58:44.584Z,98643.63
2022-12-31T03:01:37.589Z,98642.98
2022-12-31T03:04:24.450Z,98649.54
2022-12-31T03:06:53.287Z,98647.03
2022-12-31T03:09:21.517Z,98642.98
2022-12-31T03:12:07.954Z,98639.85
2022-12-31T03:14:36.011Z,98642.05
2022-12-31T03:17:04.047Z,98640.56
2022-12-31T03:19:50.864Z,98639.91
2022-12-31T03:22:28.043Z,98639.31
2022-12-31T03:25:21.293Z,98642.88
2022-12-31T03:27:50.894Z,98648.11
2022-12-31T03:30:20.405Z,98650.20
2022-12-31T03:32:49.812Z,98644.09
2022-12-31T03:35:20.531Z,98645.00
2022-12-31T03:37:50.009Z,98646.72
2022-12-31T03:40:20.982Z,98653.89
2022-12-31T03:42:49.163Z,98649.77
2022-12-31T03:45:17.464Z,98650.24
2022-12-31T03:47:46.229Z,98649.93
2022-12-31T03:50:16.725Z,98662.91
2022-12-31T03:52:45.416Z,98675.59
2022-12-31T03:55:13.696Z,98678.89
2022-12-31T03:57:42.089Z,98679.48
2022-12-31T04:00:13.452Z,98677.32
2022-12-31T04:02:42.143Z,98677.37
2022-12-31T04:05:10.923Z,98670.59
2022-12-31T04:07:39.520Z,98676.34
2022-12-31T04:10:08.446Z,98686.48
2022-12-31T04:12:36.969Z,98689.80
2022-12-31T04:15:05.387Z,98689.66
2022-12-31T04:17:33.535Z,98686.46
2022-12-31T04:20:01.941Z,98687.19
2022-12-31T04:22:30.693Z,98685.05
2022-12-31T04:24:58.708Z,98690.88
2022-12-31T04:27:26.688Z,98692.44
2022-12-31T04:29:54.764Z,98695.17
2022-12-31T04:32:22.775Z,98693.23
2022-12-31T04:34:50.847Z,98697.27
2022-12-31T04:37:18.921Z,98700.17
2022-12-31T04:39:46.993Z,98696.94
2022-12-31T04:42:15.070Z,98696.63
2022-12-31T04:44:43.062Z,98701.13
2022-12-31T04:47:10.988Z,98700.82
2022-12-31T04:49:39.130Z,98702.77
2022-12-31T04:52:07.267Z,98704.77
2022-12-31T04:54:35.246Z,98698.95
2022-12-31T04:57:03.493Z,98698.10
2022-12-31T04:59:31.527Z,98700.60
2022-12-31T05:01:59.621Z,98706.57
2022-12-31T05:04:28.163Z,98719.17
2022-12-31T05:06:56.196Z,98710.83
2022-12-31T05:09:27.618Z,98710.99
2022-12-31T05:11:55.729Z,98715.11
2022-12-31T05:14:23.729Z,98720.17
2022-12-31T05:16:52.248Z,98720.08
2022-12-31T05:19:20.336Z,98713.89
2022-12-31T05:22:08.630Z,98715.00
2022-12-31T05:24:36.735Z,98711.30
2022-12-31T05:27:05.436Z,98711.75
2022-12-31T05:29:33.385Z,98722.89
2022-12-31T05:32:01.714Z,98721.39
2022-12-31T05:34:29.726Z,98725.55
2022-12-31T05:36:57.808Z,98726.53
2022-12-31T05:39:25.821Z,98730.45
2022-12-31T05:41:53.877Z,98732.09
2022-12-31T05:44:21.882Z,98715.77
2022-12-31T05:46:49.990Z,98712.89
2022-12-31T05:49:17.978Z,98724.39
2022-12-31T05:51:46.118Z,98733.38
2022-12-31T05:54:14.190Z,98740.44
2022-12-31T05:56:42.250Z,98738.30
2022-12-31T05:59:10.467Z,98733.06
2022-12-31T06:01:38.742Z,98731.00
2022-12-31T06:04:06.816Z,98729.79
2022-12-31T06:06:34.816Z,98729.25
2022-12-31T06:09:03.520Z,98734.20
2022-12-31T06:11:31.613Z,98734.41
2022-12-31T06:13:59.650Z,98735.89
2022-12-31T06:16:28.161Z,98735.39
2022-12-31T06:18:56.399Z,98747.31
2022-12-31T06:21:24.503Z,98747.52
2022-12-31T06:23:52.540Z,98745.89
2022-12-31T06:26:20.578Z,98748.08
2022-12-31T06:28:48.758Z,98752.08
2022-12-31T06:31:17.307Z,98755.87
2022-12-31T06:33:47.007Z,98760.47
2022-12-31T06:36:16.101Z,98767.16
2022-12-31T06:38:45.195Z,98766.34
2022-12-31T06:41:15.739Z,98767.73
2022-12-31T06:43:45.375Z,98765.77
2022-12-31T06:46:16.371Z,98767.75
2022-12-31T06:48:45.224Z,98770.93
2022-12-31T06:51:17.860Z,98768.63
2022-12-31T06:53:47.486Z,98775.52
2022-12-31T06:56:17.372Z,98777.46
2022-12-31T06:58:46.338Z,98777.68
2022-12-31T07:01:51.558Z,98780.63
2022-12-31T07:04:50.618Z,98782.52
2022-12-31T07:07:22.050Z,98776.95
2022-12-31T07:10:09.020Z,98783.41
2022-12-31T07:13:02.205Z,98786.15
2022-12-31T07:16:08.152Z,98789.58
2022-12-31T07:18:39.015Z,98791.38
2022-12-31T07:21:16.133Z,98792.55
2022-12-31T07:23:44.911Z,98789.59
2022-12-31T07:26:15.730Z,98791.90
2022-12-31T07:28:54.690Z,98795.16
2022-12-31T07:31:52.820Z,98802.58
2022-12-31T07:34:58.556Z,98804.92
2022-12-31T07:37:30.643Z,98805.18
2022-12-31T07:40:01.521Z,98801.23
2022-12-31T07:42:39.195Z,98796.29
2022-12-31T07:45:21.268Z,98802.61
2022-12-31T07:47:49.682Z,98800.40
2022-12-31T07:50:19.173Z,98793.30
2022-12-31T07:52:47.532Z,98794.77
2022-12-31T07:55:15.768Z,98804.46
2022-12-31T07:58:01.867Z,98813.55
2022-12-31T08:00:31.325Z,98808.70
2022-12-31T08:03:05.756Z,98807.48
2022-12-31T08:06:00.632Z,98803.67
2022-12-31T08:08:37.776Z,98802.73
2022-12-31T08:11:21.185Z,98795.53
2022-12-31T08:13:50.491Z,98809.04
2022-12-31T08:16:18.939Z,98810.21
2022-12-31T08:18:47.467Z,98806.02
2022-12-31T08:21:19.529Z,98805.30
2022-12-31T08:24:12.662Z,98809.23
2022-12-31T08:26:51.060Z,98815.73
2022-12-31T08:29:39.584Z,98817.52
2022-12-31T08:32:13.768Z,98817.20
2022-12-31T08:34:50.267Z,98818.34
2022-12-31T08:37:28.350Z,98824.58
2022-12-31T08:40:05.727Z,98832.77
2022-12-31T08:42:58.493Z,98829.70
2022-12-31T08:45:40.980Z,98834.63
2022-12-31T08:48:41.301Z,98831.69
2022-12-31T08:51:15.913Z,98824.35
2022-12-31T08:53:44.253Z,98816.29
2022-12-31T08:56:21.420Z,98821.73
2022-12-31T08:59:14.499Z,98827.54
2022-12-31T09:02:08.839Z,98821.92
2022-12-31T09:04:45.887Z,98813.63
2022-12-31T09:07:14.716Z,98817.29
2022-12-31T09:09:57.087Z,98816.15
2022-12-31T09:13:04.107Z,98810.54
2022-12-31T09:16:17.293Z,98815.16
2022-12-31T09:18:45.740Z,98812.00
2022-12-31T09:21:14.508Z,98814.52
2022-12-31T09:23:43.119Z,98812.52
2022-12-31T09:26:28.786Z,98817.16
2022-12-31T09:29:29.394Z,98813.60
2022-12-31T09:32:23.415Z,98811.02
2022-12-31T09:35:33.548Z,98807.86
2022-12-31T09:38:31.682Z,98805.02
2022-12-31T09:41:16.427Z,98807.33
2022-12-31T09:44:03.269Z,98811.55
2022-12-31T09:46:47.227Z,98805.96
2022-12-31T09:49:34.239Z,98801.67
2022-12-31T09:52:24.191Z,98806.86
2022-12-31T09:55:00.488Z,98801.41
2022-12-31T09:57:34.926Z,98796.98
2022-12-31T10:00:15.033Z,98801.75
2022-12-31T10:03:21.005Z,98802.17
2022-12-31T10:06:11.118Z,98793.90
2022-12-31T10:08:42.532Z,98793.73
2022-12-31T10:11:23.121Z,98798.92
2022-12-31T10:14:30.169Z,98788.58
2022-12-31T10:17:18.369Z,98788.13
2022-12-31T10:20:11.837Z,98787.92
2022-12-31T10:22:45.617Z,98784.91
2022-12-31T10:25:39.720Z,98785.27
2022-12-31T10:28:20.378Z,98784.36
2022-12-31T10:31:01.171Z,98779.64
2022-12-31T10:33:38.843Z,98780.60
2022-12-31T10:36:15.899Z,98773.86
2022-12-31T10:39:13.453Z,98775.90
2022-12-31T10:41:59.531Z,98774.31
2022-12-31T10:44:42.574Z,98776.20
2022-12-31T10:47:36.705Z,98779.11
2022-12-31T10:50:32.634Z,98782.33
2022-12-31T10:53:18.361Z,98779.54
2022-12-31T10:55:58.594Z,98779.87
2022-12-31T10:58:45.357Z,98779.37
2022-12-31T11:01:16.549Z,98772.81
2022-12-31T11:04:18.251Z,98774.20
2022-12-31T11:06:55.011Z,98770.91
2022-12-31T11:09:41.834Z,98756.45
2022-12-31T11:12:28.270Z,98747.25
2022-12-31T11:15:11.744Z,98750.75
2022-12-31T11:17:49.076Z,98756.87
2022-12-31T11:21:11.512Z,98744.65
2022-12-31T11:24:03.687Z,98740.10
2022-12-31T11:26:56.527Z,98747.75
2022-12-31T11:29:33.957Z,98749.82
2022-12-31T11:32:09.442Z,98750.34
2022-12-31T11:34:46.775Z,98742.92
2022-12-31T11:37:53.508Z,98739.88
2022-12-31T11:40:44.580Z,98747.60
2022-12-31T11:43:22.845Z,98754.71
2022-12-31T11:46:21.760Z,98756.64
2022-12-31T11:48:52.843Z,98744.79
2022-12-31T11:51:50.187Z,98738.90
2022-12-31T11:54:37.783Z,98730.91
2022-12-31T11:57:26.449Z,98728.31
2022-12-31T11:59:59.468Z,98724.85
2022-12-31T12:02:38.357Z,98727.98
2022-12-31T12:05:11.010Z,98724.56
2022-12-31T12:07:39.955Z,98726.30
2022-12-31T12:10:51.339Z,98728.45
2022-12-31T12:13:27.253Z,98721.41
2022-12-31T12:16:02.702Z,98722.63
2022-12-31T12:18:36.265Z,98729.76
2022-12-31T12:21:11.558Z,98735.95
2022-12-31T12:23:40.193Z,98734.10
2022-12-31T12:26:28.745Z,98738.26
2022-12-31T12:29:00.706Z,98743.92
2022-12-31T12:31:28.775Z,98744.19
2022-12-31T12:33:56.886Z,98743.32
2022-12-31T12:36:25.008Z,98743.92
2022-12-31T12:39:06.888Z,98741.33
2022-12-31T12:41:34.932Z,98743.40
2022-12-31T12:44:13.725Z,98744.05
2022-12-31T12:46:48.751Z,98750.64
2022-12-31T12:49:24.997Z,98748.23
2022-12-31T12:52:31.367Z,98748.15
2022-12-31T12:55:09.214Z,98740.19
2022-12-31T12:57:55.265Z,98748.83
2022-12-31T13:00:29.795Z,98746.66
2022-12-31T13:03:34.616Z,98753.52
2022-12-31T13:06:08.866Z,98760.42
2022-12-31T13:08:56.703Z,98765.42
2022-12-31T13:11:36.914Z,98767.80
2022-12-31T13:14:13.803Z,98767.44
2022-12-31T13:17:09.999Z,98764.95
2022-12-31T13:19:47.642Z,98772.75
2022-12-31T13:22:47.388Z,98771.46
2022-12-31T13:25:21.830Z,98772.56
2022-12-31T13:27:50.952Z,98772.73
2022-12-31T13:30:25.582Z,98777.86
2022-12-31T13:33:00.716Z,98780.50
2022-12-31T13:35:33.623Z,98784.89
2022-12-31T13:38:28.727Z,98785.58
2022-12-31T13:41:06.383Z,98780.30
2022-12-31T13:43:34.366Z,98773.71
2022-12-31T13:46:09.721Z,98771.75
2022-12-31T13:48:45.353Z,98767.64
2022-12-31T13:51:24.923Z,98765.25
2022-12-31T13:54:07.868Z,98768.73
2022-12-31T13:56:38.136Z,98769.42
2022-12-31T13:59:45.814Z,98771.70
2022-12-31T14:02:30.257Z,98780.93
2022-12-31T14:05:07.198Z,98780.69
2022-12-31T14:07:45.178Z,98779.84
2022-12-31T14:10:15.790Z,98782.59
2022-12-31T14:12:59.579Z,98781.98
2022-12-31T14:15:32.334Z,98782.27
2022-12-31T14:18:19.985Z,98791.14
2022-12-31T14:21:06.647Z,98795.58
2022-12-31T14:23:50.486Z,98798.66
2022-12-31T14:26:27.680Z,98796.78
2022-12-31T14:29:27.107Z,98791.79
2022-12-31T14:32:10.306Z,98791.73
2022-12-31T14:34:44.290Z,98789.17
2022-12-31T14:37:34.903Z,98787.82
2022-12-31T14:40:16.214Z,98790.07
2022-12-31T14:42:51.810Z,98786.11
2022-12-31T14:45:38.960Z,98784.89
2022-12-31T14:48:28.734Z,98779.30
2022-12-31T14:50:59.959Z,98783.92
2022-12-31T14:53:29.087Z,98778.85
2022-12-31T14:56:05.750Z,98771.69
2022-12-31T14:58:42.612Z,98776.30
2022-12-31T15:01:17.603Z,98781.45
2022-12-31T15:03:51.791Z,98781.22
2022-12-31T15:06:22.980Z,98781.05
2022-12-31T15:09:22.184Z,98782.16
2022-12-31T15:11:50.126Z,98783.52
2022-12-31T15:14:39.586Z,98788.30
2022-12-31T15:17:10.601Z,98789.54
2022-12-31T15:19:50.860Z,98788.22
2022-12-31T15:22:31.750Z,98788.71
2022-12-31T15:25:01.215Z,98790.88
2022-12-31T15:27:39.000Z,98789.68
2022-12-31T15:30:08.156Z,98786.80
2022-12-31T15:32:40.218Z,98786.50
2022-12-31T15:35:20.517Z,98790.06
2022-12-31T15:38:15.828Z,98799.09
2022-12-31T15:40:46.226Z,98800.08
2022-12-31T15:43:40.169Z,98808.66
2022-12-31T15:46:16.812Z,98814.20
2022-12-31T15:49:15.899Z,98827.87
2022-12-31T15:51:48.490Z,98834.55
2022-12-31T15:54:24.020Z,98834.38
2022-12-31T15:56:52.676Z,98829.15
2022-12-31T15:59:22.307Z,98829.33
2022-12-31T16:01:50.558Z,98825.00
2022-12-31T16:04:21.121Z,98828.59
2022-12-31T16:06:51.263Z,98836.73
2022-12-31T16:09:24.499Z,98836.67
2022-12-31T16:11:54.084Z,98832.58
2022-12-31T16:14:26.282Z,98829.09
2022-12-31T16:16:58.078Z,98830.82
2022-12-31T16:19:36.436Z,98840.18
2022-12-31T16:22:14.587Z,98842.06
2022-12-31T16:25:19.494Z,98839.17
2022-12-31T16:27:31.646Z,98837.04
2022-12-31T16:30:07.309Z,98838.19
2022-12-31T16:32:39.052Z,98837.34
2022-12-31T16:35:25.091Z,98835.71
2022-12-31T16:38:03.766Z,98844.64
2022-12-31T16:40:31.845Z,98852.46
2022-12-31T16:43:00.406Z,98857.76
2022-12-31T16:45:36.262Z,98864.88
2022-12-31T16:48:16.580Z,98864.66
2022-12-31T16:50:47.063Z,98857.35
2022-12-31T16:53:19.545Z,98862.60
2022-12-31T16:55:57.139Z,98864.08
2022-12-31T16:58:33.919Z,98876.73
2022-12-31T17:01:19.864Z,98879.99
2022-12-31T17:03:52.697Z,98872.67
2022-12-31T17:06:22.249Z,98874.45
2022-12-31T17:08:50.279Z,98873.38
2022-12-31T17:11:30.888Z,98874.48
2022-12-31T17:14:23.168Z,98881.10
2022-12-31T17:17:02.544Z,98885.86
2022-12-31T17:19:34.259Z,98885.75
2022-12-31T17:22:16.139Z,98873.05
2022-12-31T17:24:44.437Z,98877.92
2022-12-31T17:27:12.484Z,98878.61
2022-12-31T17:29:40.500Z,98879.42
2022-12-31T17:32:31.355Z,98874.18
2022-12-31T17:34:59.406Z,98886.15
2022-12-31T17:37:29.566Z,98900.02
2022-12-31T17:42:49.656Z,98907.66
2022-12-31T17:45:21.938Z,98908.84
2022-12-31T17:47:52.615Z,98909.96
2022-12-31T17:50:25.318Z,98921.64
2022-12-31T17:52:59.880Z,98923.20
2022-12-31T17:55:28.865Z,98925.52
2022-12-31T17:57:58.248Z,98917.71
2022-12-31T18:00:27.285Z,98919.22
2022-12-31T18:02:55.450Z,98916.92
2022-12-31T18:05:23.840Z,98920.58
2022-12-31T18:07:52.402Z,98913.17
2022-12-31T18:10:23.113Z,98915.58
2022-12-31T18:12:51.337Z,98911.75
2022-12-31T18:15:22.039Z,98907.31
2022-12-31T18:17:50.656Z,98901.45
2022-12-31T18:20:18.892Z,98901.42
2022-12-31T18:22:47.239Z,98896.31
2022-12-31T18:25:19.682Z,98889.47
2022-12-31T18:27:48.905Z,98886.08
2022-12-31T18:30:16.974Z,98883.73
2022-12-31T18:32:45.533Z,98878.93
2022-12-31T18:36:06.589Z,98868.52
2022-12-31T18:38:13.153Z,98866.29
2022-12-31T18:40:44.472Z,98877.24
2022-12-31T18:43:17.567Z,98879.01
2022-12-31T18:45:46.520Z,98883.07
2022-12-31T18:48:15.088Z,98887.15
2022-12-31T18:50:44.049Z,98884.14
2022-12-31T18:53:22.535Z,98880.11
2022-12-31T18:55:53.332Z,98879.41
2022-12-31T18:58:22.119Z,98876.84
2022-12-31T19:00:51.017Z,98880.34
2022-12-31T19:03:22.536Z,98888.55
2022-12-31T19:05:52.023Z,98889.90
2022-12-31T19:08:23.730Z,98883.36
2022-12-31T19:10:53.591Z,98883.60
2022-12-31T19:13:23.021Z,98881.39
2022-12-31T19:15:53.402Z,98880.42
2022-12-31T19:18:21.751Z,98882.33
2022-12-31T19:20:51.161Z,98881.07
2022-12-31T19:23:21.671Z,98883.20
2022-12-31T19:25:50.251Z,98880.64
2022-12-31T19:28:21.326Z,98879.28
2022-12-31T19:30:49.940Z,98877.27
2022-12-31T19:33:18.256Z,98876.89
2022-12-31T19:35:46.460Z,98878.48
2022-12-31T19:38:22.701Z,98879.40
2022-12-31T19:40:52.105Z,98880.75
2022-12-31T19:43:21.924Z,98880.29
2022-12-31T19:45:50.855Z,98875.13
2022-12-31T19:48:23.701Z,98876.94
2022-12-31T19:50:56.767Z,98880.56
2022-12-31T19:53:26.691Z,98884.38
2022-12-31T19:55:54.875Z,98881.91
2022-12-31T19:58:27.387Z,98884.41
2022-12-31T20:01:02.369Z,98886.91
2022-12-31T20:03:32.850Z,98885.44
2022-12-31T20:06:10.803Z,98886.21
2022-12-31T20:08:39.489Z,98892.55
2022-12-31T20:11:11.394Z,98891.74
2022-12-31T20:13:40.650Z,98888.61
2022-12-31T20:16:09.871Z,98891.48
2022-12-31T20:18:39.070Z,98895.43
2022-12-31T20:21:32.901Z,98892.27
2022-12-31T20:24:01.014Z,98890.77
2022-12-31T20:26:29.077Z,98887.66
2022-12-31T20:28:57.103Z,98887.27
2022-12-31T20:31:26.486Z,98885.31
2022-12-31T20:33:55.031Z,98886.29
2022-12-31T20:36:23.850Z,98893.39
2022-12-31T20:38:52.291Z,98891.81
2022-12-31T20:41:22.707Z,98892.58
2022-12-31T20:43:51.228Z,98889.73
2022-12-31T20:46:20.687Z,98887.91
2022-12-31T20:48:50.450Z,98889.02
2022-12-31T20:51:19.697Z,98893.08
2022-12-31T20:53:50.621Z,98893.91
2022-12-31T20:56:19.210Z,98895.27
2022-12-31T20:58:48.012Z,98893.84
2022-12-31T21:01:17.305Z,98893.36
2022-12-31T21:06:35.661Z,98906.39
2022-12-31T21:09:06.061Z,98907.58
2022-12-31T21:11:53.282Z,98911.92
2022-12-31T21:14:21.947Z,98916.02
2022-12-31T21:16:50.654Z,98918.13
2022-12-31T21:19:18.636Z,98921.33
2022-12-31T21:21:48.347Z,98922.27
2022-12-31T21:24:23.272Z,98926.27
2022-12-31T21:26:55.383Z,98930.02
2022-12-31T21:29:23.514Z,98932.00
2022-12-31T21:31:51.692Z,98928.64
2022-12-31T21:34:19.790Z,98935.36
2022-12-31T21:36:47.869Z,98944.08
2022-12-31T21:39:15.976Z,98943.98
2022-12-31T21:41:53.186Z,98943.48
2022-12-31T21:44:24.041Z,98944.89
2022-12-31T21:47:37.174Z,98948.02
2022-12-31T21:50:07.536Z,98956.13
2022-12-31T21:52:35.623Z,98955.83
2022-12-31T21:55:24.106Z,98953.30
2022-12-31T21:58:24.631Z,98954.60
2022-12-31T22:00:59.433Z,98955.88
2022-12-31T22:03:28.340Z,98955.89
2022-12-31T22:06:12.453Z,98960.10
2022-12-31T22:08:45.739Z,98960.85
2022-12-31T22:11:15.060Z,98958.52
2022-12-31T22:13:43.773Z,98958.20
2022-12-31T22:16:14.181Z,98955.67
2022-12-31T22:18:44.121Z,98966.28
2022-12-31T22:21:18.942Z,98969.12
2022-12-31T22:23:52.737Z,98971.05
2022-12-31T22:26:23.726Z,98964.02
2022-12-31T22:28:52.490Z,98967.89
2022-12-31T22:31:26.649Z,98973.40
2022-12-31T22:33:54.808Z,98976.51
2022-12-31T22:36:23.961Z,98981.73
2022-12-31T22:38:57.471Z,98982.39
2022-12-31T22:41:26.764Z,98973.04
2022-12-31T22:44:03.047Z,98971.91
2022-12-31T22:46:32.479Z,98971.90
2022-12-31T22:49:02.475Z,98971.55
2022-12-31T22:51:57.162Z,98972.36
2022-12-31T22:54:19.568Z,98973.62
2022-12-31T22:56:47.702Z,98968.58
2022-12-31T22:59:15.718Z,98967.38
2022-12-31T23:01:44.163Z,98976.08
2022-12-31T23:04:12.411Z,98983.77
2022-12-31T23:06:47.372Z,98986.89
2022-12-31T23:09:36.058Z,98986.27
2022-12-31T23:12:06.297Z,98985.70
2022-12-31T23:14:53.478Z,98977.70
2022-12-31T23:17:45.239Z,98984.30
2022-12-31T23:20:37.740Z,98982.26
2022-12-31T23:23:12.970Z,98983.42
2022-12-31T23:25:51.993Z,98985.23
2022-12-31T23:28:24.944Z,98982.23
2022-12-31T23:30:53.873Z,98983.94
2022-12-31T23:33:24.124Z,98987.85
2022-12-31T23:36:04.085Z,98991.18
2022-12-31T23:38:32.215Z,98989.85
2022-12-31T23:41:00.448Z,98997.86
2022-12-31T23:43:28.476Z,98999.81
2022-12-31T23:45:56.530Z,99001.62
2022-12-31T23:48:24.622Z,99009.48
2022-12-31T23:50:54.102Z,99012.28
2022-12-31T23:53:23.581Z,99015.31
2022-12-31T23:55:52.823Z,99008.95
2022-12-31T23:58:21.853Z,99009.46
